Spring Creek, Nebraska
Current Conditions -  °F | °C
As of 10:53 AM on Friday 21 Nov 2014 (Local Time) from KBBW Reporting Station
Clear Clear  
Wind Chill: 32°   Ceiling: Unl
Heat Index: 39°   Visibility: 10mi
Dew Point: 28°   Wind: 10mph
Humidity: 65%   Direction: 190°S
Pressure: 30.01"   Gusts: NA
Location:  41.4141°N, 99.3925°W
Report Text: KBBW 211653Z AUTO 19009KT 10SM CLR 04/M02 A3001 RMK AO2 SLP187 T00391022 PWINO $
Loading
Personal Weather Stations






























Interactive Weather Map New forecast layout! Learn more

10-Day Weather Forecast

Advertisements
Track Severe Weather on mobile